sensor_id;sensor_type;location;lat;lon;timestamp;temperature;humidity
13346;DHT22;6742;48.036;15.780;2022-12-07T00:01:44;3.80;99.90
13346;DHT22;6742;48.036;15.780;2022-12-07T00:04:13;3.70;99.90
13346;DHT22;6742;48.036;15.780;2022-12-07T00:06:42;3.80;99.90
13346;DHT22;6742;48.036;15.780;2022-12-07T00:09:11;3.80;99.90
13346;DHT22;6742;48.036;15.780;2022-12-07T00:11:38;3.80;99.90
13346;DHT22;6742;48.036;15.780;2022-12-07T00:14:07;3.80;99.90
13346;DHT22;6742;48.036;15.780;2022-12-07T00:16:36;3.80;99.90
13346;DHT22;6742;48.036;15.780;2022-12-07T00:19:04;3.70;99.90
13346;DHT22;6742;48.036;15.780;2022-12-07T00:21:32;3.80;99.90
13346;DHT22;6742;48.036;15.780;2022-12-07T00:24:00;3.80;99.90
13346;DHT22;6742;48.036;15.780;2022-12-07T00:26:33;3.80;99.90
13346;DHT22;6742;48.036;15.780;2022-12-07T00:29:02;3.80;99.90
13346;DHT22;6742;48.036;15.780;2022-12-07T00:31:32;3.70;99.90
13346;DHT22;6742;48.036;15.780;2022-12-07T00:34:01;3.80;99.90
13346;DHT22;6742;48.036;15.780;2022-12-07T00:36:32;3.70;99.90
13346;DHT22;6742;48.036;15.780;2022-12-07T00:39:00;3.80;99.90
13346;DHT22;6742;48.036;15.780;2022-12-07T00:41:28;3.80;99.90
13346;DHT22;6742;48.036;15.780;2022-12-07T00:43:57;3.80;99.90
13346;DHT22;6742;48.036;15.780;2022-12-07T00:46:25;3.80;99.90
13346;DHT22;6742;48.036;15.780;2022-12-07T00:48:52;3.90;99.90
13346;DHT22;6742;48.036;15.780;2022-12-07T00:51:21;3.80;99.90
13346;DHT22;6742;48.036;15.780;2022-12-07T00:53:51;3.70;99.90
13346;DHT22;6742;48.036;15.780;2022-12-07T00:56:20;3.80;99.90
13346;DHT22;6742;48.036;15.780;2022-12-07T00:58:50;3.80;99.90
13346;DHT22;6742;48.036;15.780;2022-12-07T01:01:17;3.80;99.90
13346;DHT22;6742;48.036;15.780;2022-12-07T01:03:47;3.80;99.90
13346;DHT22;6742;48.036;15.780;2022-12-07T01:06:15;3.70;99.90
13346;DHT22;6742;48.036;15.780;2022-12-07T01:08:43;3.80;99.90
13346;DHT22;6742;48.036;15.780;2022-12-07T01:11:14;3.80;99.90
13346;DHT22;6742;48.036;15.780;2022-12-07T01:13:42;3.80;99.90
13346;DHT22;6742;48.036;15.780;2022-12-07T01:16:11;3.80;99.90
13346;DHT22;6742;48.036;15.780;2022-12-07T01:18:38;3.70;99.90
13346;DHT22;6742;48.036;15.780;2022-12-07T01:21:07;3.80;99.90
13346;DHT22;6742;48.036;15.780;2022-12-07T01:23:35;3.80;99.90
13346;DHT22;6742;48.036;15.780;2022-12-07T01:26:04;3.70;99.90
13346;DHT22;6742;48.036;15.780;2022-12-07T01:28:33;3.70;99.90
13346;DHT22;6742;48.036;15.780;2022-12-07T01:31:02;3.70;99.90
13346;DHT22;6742;48.036;15.780;2022-12-07T01:33:31;3.70;99.90
13346;DHT22;6742;48.036;15.780;2022-12-07T01:36:02;3.60;99.90
13346;DHT22;6742;48.036;15.780;2022-12-07T01:38:30;3.60;99.90
13346;DHT22;6742;48.036;15.780;2022-12-07T01:40:58;3.60;99.90
13346;DHT22;6742;48.036;15.780;2022-12-07T01:43:27;3.70;99.90
13346;DHT22;6742;48.036;15.780;2022-12-07T01:46:03;3.70;99.90
13346;DHT22;6742;48.036;15.780;2022-12-07T01:48:32;3.70;99.90
13346;DHT22;6742;48.036;15.780;2022-12-07T01:51:03;3.70;99.90
13346;DHT22;6742;48.036;15.780;2022-12-07T01:53:33;3.70;99.90
13346;DHT22;6742;48.036;15.780;2022-12-07T01:56:01;3.70;99.90
13346;DHT22;6742;48.036;15.780;2022-12-07T01:58:28;3.70;99.90
13346;DHT22;6742;48.036;15.780;2022-12-07T02:00:55;3.70;99.90
13346;DHT22;6742;48.036;15.780;2022-12-07T02:03:27;3.60;99.90
13346;DHT22;6742;48.036;15.780;2022-12-07T02:05:57;3.60;99.90
13346;DHT22;6742;48.036;15.780;2022-12-07T02:08:26;3.70;99.90
13346;DHT22;6742;48.036;15.780;2022-12-07T02:10:53;3.70;99.90
13346;DHT22;6742;48.036;15.780;2022-12-07T02:13:24;3.70;99.90
13346;DHT22;6742;48.036;15.780;2022-12-07T02:16:22;3.70;99.90
13346;DHT22;6742;48.036;15.780;2022-12-07T02:19:09;3.80;99.90
13346;DHT22;6742;48.036;15.780;2022-12-07T02:21:45;3.70;99.90
13346;DHT22;6742;48.036;15.780;2022-12-07T02:24:30;3.80;99.90
13346;DHT22;6742;48.036;15.780;2022-12-07T02:27:26;3.80;99.90
13346;DHT22;6742;48.036;15.780;2022-12-07T02:30:00;3.80;99.90
13346;DHT22;6742;48.036;15.780;2022-12-07T02:32:37;3.70;99.90
13346;DHT22;6742;48.036;15.780;2022-12-07T02:35:08;3.60;99.90
13346;DHT22;6742;48.036;15.780;2022-12-07T02:37:39;3.70;99.90
13346;DHT22;6742;48.036;15.780;2022-12-07T02:40:11;3.70;99.90
13346;DHT22;6742;48.036;15.780;2022-12-07T02:42:44;3.70;99.90
13346;DHT22;6742;48.036;15.780;2022-12-07T02:45:15;3.80;99.90
13346;DHT22;6742;48.036;15.780;2022-12-07T02:47:46;3.80;99.90
13346;DHT22;6742;48.036;15.780;2022-12-07T02:50:13;3.80;99.90
13346;DHT22;6742;48.036;15.780;2022-12-07T02:52:40;3.80;99.90
13346;DHT22;6742;48.036;15.780;2022-12-07T02:55:08;3.80;99.90
13346;DHT22;6742;48.036;15.780;2022-12-07T02:57:45;3.70;99.90
13346;DHT22;6742;48.036;15.780;2022-12-07T03:00:18;3.70;99.90
13346;DHT22;6742;48.036;15.780;2022-12-07T03:02:53;3.60;99.90
13346;DHT22;6742;48.036;15.780;2022-12-07T03:05:52;3.70;99.90
13346;DHT22;6742;48.036;15.780;2022-12-07T03:08:28;3.70;99.90
13346;DHT22;6742;48.036;15.780;2022-12-07T03:11:03;3.70;99.90
13346;DHT22;6742;48.036;15.780;2022-12-07T03:13:34;3.70;99.90
13346;DHT22;6742;48.036;15.780;2022-12-07T03:16:10;3.70;99.90
13346;DHT22;6742;48.036;15.780;2022-12-07T03:18:40;3.70;99.90
13346;DHT22;6742;48.036;15.780;2022-12-07T03:21:13;3.70;99.90
13346;DHT22;6742;48.036;15.780;2022-12-07T03:23:41;3.70;99.90
13346;DHT22;6742;48.036;15.780;2022-12-07T03:26:10;3.70;99.90
13346;DHT22;6742;48.036;15.780;2022-12-07T03:28:42;3.80;99.90
13346;DHT22;6742;48.036;15.780;2022-12-07T03:31:15;3.70;99.90
13346;DHT22;6742;48.036;15.780;2022-12-07T03:33:49;3.80;99.90
13346;DHT22;6742;48.036;15.780;2022-12-07T03:36:21;3.80;99.90
13346;DHT22;6742;48.036;15.780;2022-12-07T03:38:57;3.80;99.90
13346;DHT22;6742;48.036;15.780;2022-12-07T03:41:27;3.70;99.90
13346;DHT22;6742;48.036;15.780;2022-12-07T03:43:56;3.70;99.90
13346;DHT22;6742;48.036;15.780;2022-12-07T03:46:31;3.60;99.90
13346;DHT22;6742;48.036;15.780;2022-12-07T03:49:07;3.60;99.90
13346;DHT22;6742;48.036;15.780;2022-12-07T03:51:39;3.60;99.90
13346;DHT22;6742;48.036;15.780;2022-12-07T03:54:15;3.60;99.90
13346;DHT22;6742;48.036;15.780;2022-12-07T03:56:44;3.70;99.90
13346;DHT22;6742;48.036;15.780;2022-12-07T03:59:13;3.70;99.90
13346;DHT22;6742;48.036;15.780;2022-12-07T04:01:43;3.70;99.90
13346;DHT22;6742;48.036;15.780;2022-12-07T04:04:10;3.70;99.90
13346;DHT22;6742;48.036;15.780;2022-12-07T04:06:37;3.80;99.90
13346;DHT22;6742;48.036;15.780;2022-12-07T04:09:04;3.80;99.90
13346;DHT22;6742;48.036;15.780;2022-12-07T04:11:31;3.70;99.90
13346;DHT22;6742;48.036;15.780;2022-12-07T04:13:58;3.70;99.90
13346;DHT22;6742;48.036;15.780;2022-12-07T04:16:44;3.70;99.90
13346;DHT22;6742;48.036;15.780;2022-12-07T04:19:21;3.70;99.90
13346;DHT22;6742;48.036;15.780;2022-12-07T04:21:48;3.70;99.90
13346;DHT22;6742;48.036;15.780;2022-12-07T04:24:16;3.70;99.90
13346;DHT22;6742;48.036;15.780;2022-12-07T04:26:45;3.60;99.90
13346;DHT22;6742;48.036;15.780;2022-12-07T04:29:12;3.70;99.90
13346;DHT22;6742;48.036;15.780;2022-12-07T04:31:40;3.70;99.90
13346;DHT22;6742;48.036;15.780;2022-12-07T04:34:09;3.80;99.90
13346;DHT22;6742;48.036;15.780;2022-12-07T04:36:36;3.80;99.90
13346;DHT22;6742;48.036;15.780;2022-12-07T04:39:04;3.70;99.90
13346;DHT22;6742;48.036;15.780;2022-12-07T04:41:31;3.70;99.90
13346;DHT22;6742;48.036;15.780;2022-12-07T04:44:00;3.70;99.90
13346;DHT22;6742;48.036;15.780;2022-12-07T04:46:29;3.70;99.90
13346;DHT22;6742;48.036;15.780;2022-12-07T04:48:57;3.70;99.90
13346;DHT22;6742;48.036;15.780;2022-12-07T04:51:28;3.60;99.90
13346;DHT22;6742;48.036;15.780;2022-12-07T04:53:55;3.70;99.90
13346;DHT22;6742;48.036;15.780;2022-12-07T04:56:23;3.60;99.90
13346;DHT22;6742;48.036;15.780;2022-12-07T04:58:52;3.70;99.90
13346;DHT22;6742;48.036;15.780;2022-12-07T05:01:20;3.60;99.90
13346;DHT22;6742;48.036;15.780;2022-12-07T05:03:47;3.60;99.90
13346;DHT22;6742;48.036;15.780;2022-12-07T05:06:14;3.60;99.90
13346;DHT22;6742;48.036;15.780;2022-12-07T05:08:43;3.80;99.90
13346;DHT22;6742;48.036;15.780;2022-12-07T05:11:10;3.70;99.90
13346;DHT22;6742;48.036;15.780;2022-12-07T05:13:58;3.70;99.90
13346;DHT22;6742;48.036;15.780;2022-12-07T05:16:25;3.70;99.90
13346;DHT22;6742;48.036;15.780;2022-12-07T05:18:52;3.70;99.90
13346;DHT22;6742;48.036;15.780;2022-12-07T05:21:19;3.70;99.90
13346;DHT22;6742;48.036;15.780;2022-12-07T05:23:47;3.70;99.90
13346;DHT22;6742;48.036;15.780;2022-12-07T05:26:14;3.70;99.90
13346;DHT22;6742;48.036;15.780;2022-12-07T05:28:41;3.80;99.90
13346;DHT22;6742;48.036;15.780;2022-12-07T05:31:08;3.70;99.90
13346;DHT22;6742;48.036;15.780;2022-12-07T05:33:35;3.70;99.90
13346;DHT22;6742;48.036;15.780;2022-12-07T05:36:03;3.70;99.90
13346;DHT22;6742;48.036;15.780;2022-12-07T05:38:31;3.70;99.90
13346;DHT22;6742;48.036;15.780;2022-12-07T05:41:04;3.70;99.90
13346;DHT22;6742;48.036;15.780;2022-12-07T05:43:31;3.70;99.90
13346;DHT22;6742;48.036;15.780;2022-12-07T05:45:58;3.80;99.90
13346;DHT22;6742;48.036;15.780;2022-12-07T05:48:26;3.70;99.90
13346;DHT22;6742;48.036;15.780;2022-12-07T05:50:53;3.60;99.90
13346;DHT22;6742;48.036;15.780;2022-12-07T05:53:20;3.60;99.90
13346;DHT22;6742;48.036;15.780;2022-12-07T05:55:46;3.60;99.90
13346;DHT22;6742;48.036;15.780;2022-12-07T05:58:15;3.50;99.90
13346;DHT22;6742;48.036;15.780;2022-12-07T06:00:59;3.50;99.90
13346;DHT22;6742;48.036;15.780;2022-12-07T06:03:26;3.50;99.90
13346;DHT22;6742;48.036;15.780;2022-12-07T06:05:53;3.50;99.90
13346;DHT22;6742;48.036;15.780;2022-12-07T06:08:20;3.40;99.90
13346;DHT22;6742;48.036;15.780;2022-12-07T06:10:47;3.50;99.90
13346;DHT22;6742;48.036;15.780;2022-12-07T06:13:37;3.50;99.90
13346;DHT22;6742;48.036;15.780;2022-12-07T06:16:04;3.60;99.90
13346;DHT22;6742;48.036;15.780;2022-12-07T06:18:31;3.60;99.90
13346;DHT22;6742;48.036;15.780;2022-12-07T06:20:57;3.60;99.90
13346;DHT22;6742;48.036;15.780;2022-12-07T06:23:27;3.70;99.90
13346;DHT22;6742;48.036;15.780;2022-12-07T06:25:54;3.60;99.90
13346;DHT22;6742;48.036;15.780;2022-12-07T06:28:21;3.60;99.90
13346;DHT22;6742;48.036;15.780;2022-12-07T06:30:56;3.60;99.90
13346;DHT22;6742;48.036;15.780;2022-12-07T06:33:23;3.50;99.90
13346;DHT22;6742;48.036;15.780;2022-12-07T06:35:54;3.40;99.90
13346;DHT22;6742;48.036;15.780;2022-12-07T06:38:21;3.50;99.90
13346;DHT22;6742;48.036;15.780;2022-12-07T06:40:48;3.50;99.90
13346;DHT22;6742;48.036;15.780;2022-12-07T06:43:15;3.50;99.90
13346;DHT22;6742;48.036;15.780;2022-12-07T06:45:42;3.50;99.90
13346;DHT22;6742;48.036;15.780;2022-12-07T06:48:13;3.40;99.90
13346;DHT22;6742;48.036;15.780;2022-12-07T06:50:40;3.40;99.90
13346;DHT22;6742;48.036;15.780;2022-12-07T06:53:08;3.40;99.90
13346;DHT22;6742;48.036;15.780;2022-12-07T06:55:35;3.50;99.90
13346;DHT22;6742;48.036;15.780;2022-12-07T06:58:02;3.50;99.90
13346;DHT22;6742;48.036;15.780;2022-12-07T07:00:29;3.40;99.90
13346;DHT22;6742;48.036;15.780;2022-12-07T07:02:56;3.50;99.90
13346;DHT22;6742;48.036;15.780;2022-12-07T07:05:25;3.40;99.90
13346;DHT22;6742;48.036;15.780;2022-12-07T07:07:52;3.40;99.90
13346;DHT22;6742;48.036;15.780;2022-12-07T07:10:18;3.40;99.90
13346;DHT22;6742;48.036;15.780;2022-12-07T07:12:45;3.40;99.90
13346;DHT22;6742;48.036;15.780;2022-12-07T07:15:12;3.40;99.90
13346;DHT22;6742;48.036;15.780;2022-12-07T07:17:39;3.40;99.90
13346;DHT22;6742;48.036;15.780;2022-12-07T07:20:07;3.40;99.90
13346;DHT22;6742;48.036;15.780;2022-12-07T07:22:35;3.40;99.90
13346;DHT22;6742;48.036;15.780;2022-12-07T07:25:02;3.40;99.90
13346;DHT22;6742;48.036;15.780;2022-12-07T07:27:32;3.40;99.90
13346;DHT22;6742;48.036;15.780;2022-12-07T07:29:59;3.40;99.90
13346;DHT22;6742;48.036;15.780;2022-12-07T07:32:25;3.40;99.90
13346;DHT22;6742;48.036;15.780;2022-12-07T07:34:53;3.50;99.90
13346;DHT22;6742;48.036;15.780;2022-12-07T07:37:20;3.50;99.90
13346;DHT22;6742;48.036;15.780;2022-12-07T07:39:48;3.40;99.90
13346;DHT22;6742;48.036;15.780;2022-12-07T07:42:15;3.50;99.90
13346;DHT22;6742;48.036;15.780;2022-12-07T07:44:42;3.40;99.90
13346;DHT22;6742;48.036;15.780;2022-12-07T07:47:09;3.50;99.90
13346;DHT22;6742;48.036;15.780;2022-12-07T07:49:36;3.50;99.90
13346;DHT22;6742;48.036;15.780;2022-12-07T07:52:04;3.50;99.90
13346;DHT22;6742;48.036;15.780;2022-12-07T07:54:31;3.50;99.90
13346;DHT22;6742;48.036;15.780;2022-12-07T07:56:59;3.50;99.90
13346;DHT22;6742;48.036;15.780;2022-12-07T07:59:26;3.60;99.90
13346;DHT22;6742;48.036;15.780;2022-12-07T08:01:53;3.60;99.90
13346;DHT22;6742;48.036;15.780;2022-12-07T08:04:20;3.50;99.90
13346;DHT22;6742;48.036;15.780;2022-12-07T08:06:47;3.60;99.90
13346;DHT22;6742;48.036;15.780;2022-12-07T08:09:14;3.60;99.90
13346;DHT22;6742;48.036;15.780;2022-12-07T08:11:41;3.60;99.90
13346;DHT22;6742;48.036;15.780;2022-12-07T08:14:09;3.60;99.90
13346;DHT22;6742;48.036;15.780;2022-12-07T08:16:37;3.50;99.90
13346;DHT22;6742;48.036;15.780;2022-12-07T08:19:05;3.60;99.90
13346;DHT22;6742;48.036;15.780;2022-12-07T08:21:32;3.50;99.90
13346;DHT22;6742;48.036;15.780;2022-12-07T08:23:58;3.50;99.90
13346;DHT22;6742;48.036;15.780;2022-12-07T08:26:25;3.50;99.90
13346;DHT22;6742;48.036;15.780;2022-12-07T08:28:52;3.60;99.90
13346;DHT22;6742;48.036;15.780;2022-12-07T08:31:21;3.60;99.90
13346;DHT22;6742;48.036;15.780;2022-12-07T08:33:48;3.60;99.90
13346;DHT22;6742;48.036;15.780;2022-12-07T08:36:16;3.70;99.90
13346;DHT22;6742;48.036;15.780;2022-12-07T08:38:43;3.70;99.90
13346;DHT22;6742;48.036;15.780;2022-12-07T08:41:10;3.80;99.90
13346;DHT22;6742;48.036;15.780;2022-12-07T08:43:37;3.80;99.90
13346;DHT22;6742;48.036;15.780;2022-12-07T08:46:08;3.80;99.90
13346;DHT22;6742;48.036;15.780;2022-12-07T08:48:40;3.80;99.90
13346;DHT22;6742;48.036;15.780;2022-12-07T08:51:07;3.80;99.90
13346;DHT22;6742;48.036;15.780;2022-12-07T08:53:35;3.90;99.90
13346;DHT22;6742;48.036;15.780;2022-12-07T08:56:04;3.80;99.90
13346;DHT22;6742;48.036;15.780;2022-12-07T08:58:33;3.80;99.90
13346;DHT22;6742;48.036;15.780;2022-12-07T09:01:00;3.80;99.90
13346;DHT22;6742;48.036;15.780;2022-12-07T09:03:27;3.80;99.90
13346;DHT22;6742;48.036;15.780;2022-12-07T09:05:56;3.90;99.90
13346;DHT22;6742;48.036;15.780;2022-12-07T09:08:27;3.80;99.90
13346;DHT22;6742;48.036;15.780;2022-12-07T09:10:58;3.80;99.90
13346;DHT22;6742;48.036;15.780;2022-12-07T09:13:25;3.80;99.90
13346;DHT22;6742;48.036;15.780;2022-12-07T09:15:52;3.90;99.90
13346;DHT22;6742;48.036;15.780;2022-12-07T09:18:19;3.80;99.90
13346;DHT22;6742;48.036;15.780;2022-12-07T09:20:46;3.90;99.90
13346;DHT22;6742;48.036;15.780;2022-12-07T09:23:14;3.90;99.90
13346;DHT22;6742;48.036;15.780;2022-12-07T09:25:41;4.00;99.90
13346;DHT22;6742;48.036;15.780;2022-12-07T09:28:08;3.90;99.90
13346;DHT22;6742;48.036;15.780;2022-12-07T09:30:35;3.90;99.90
13346;DHT22;6742;48.036;15.780;2022-12-07T09:33:02;3.90;99.90
13346;DHT22;6742;48.036;15.780;2022-12-07T09:35:29;4.00;99.90
13346;DHT22;6742;48.036;15.780;2022-12-07T09:37:56;4.10;99.90
13346;DHT22;6742;48.036;15.780;2022-12-07T09:40:24;4.10;99.90
13346;DHT22;6742;48.036;15.780;2022-12-07T09:42:53;4.20;99.90
13346;DHT22;6742;48.036;15.780;2022-12-07T09:45:24;4.10;99.90
13346;DHT22;6742;48.036;15.780;2022-12-07T09:47:52;4.10;99.90
13346;DHT22;6742;48.036;15.780;2022-12-07T09:50:22;4.10;99.90
13346;DHT22;6742;48.036;15.780;2022-12-07T09:52:50;4.10;99.90
13346;DHT22;6742;48.036;15.780;2022-12-07T09:55:22;4.00;99.90
13346;DHT22;6742;48.036;15.780;2022-12-07T09:57:52;4.00;99.90
13346;DHT22;6742;48.036;15.780;2022-12-07T10:00:21;3.90;99.90
13346;DHT22;6742;48.036;15.780;2022-12-07T10:02:53;3.90;99.90
13346;DHT22;6742;48.036;15.780;2022-12-07T10:05:24;4.00;99.90
13346;DHT22;6742;48.036;15.780;2022-12-07T10:07:53;4.30;99.90
13346;DHT22;6742;48.036;15.780;2022-12-07T10:10:23;4.40;99.90
13346;DHT22;6742;48.036;15.780;2022-12-07T10:12:57;4.60;99.90
13346;DHT22;6742;48.036;15.780;2022-12-07T10:15:41;4.90;99.90
13346;DHT22;6742;48.036;15.780;2022-12-07T10:18:19;5.00;99.90
13346;DHT22;6742;48.036;15.780;2022-12-07T10:20:47;5.20;99.90
13346;DHT22;6742;48.036;15.780;2022-12-07T10:23:15;5.20;99.90
13346;DHT22;6742;48.036;15.780;2022-12-07T10:25:43;5.30;99.90
13346;DHT22;6742;48.036;15.780;2022-12-07T10:28:15;5.50;99.90
13346;DHT22;6742;48.036;15.780;2022-12-07T10:30:55;5.50;99.90
13346;DHT22;6742;48.036;15.780;2022-12-07T10:33:32;5.70;99.90
13346;DHT22;6742;48.036;15.780;2022-12-07T10:36:01;5.70;99.90
13346;DHT22;6742;48.036;15.780;2022-12-07T10:38:45;5.70;99.90
13346;DHT22;6742;48.036;15.780;2022-12-07T10:41:12;5.70;99.90
13346;DHT22;6742;48.036;15.780;2022-12-07T10:43:51;5.70;99.90
13346;DHT22;6742;48.036;15.780;2022-12-07T10:46:45;5.70;99.90
13346;DHT22;6742;48.036;15.780;2022-12-07T10:49:47;5.60;99.90
13346;DHT22;6742;48.036;15.780;2022-12-07T10:52:24;5.40;99.90
13346;DHT22;6742;48.036;15.780;2022-12-07T10:55:08;5.20;99.90
13346;DHT22;6742;48.036;15.780;2022-12-07T10:57:47;5.10;99.90
13346;DHT22;6742;48.036;15.780;2022-12-07T11:00:21;5.00;99.90
13346;DHT22;6742;48.036;15.780;2022-12-07T11:03:17;5.10;99.90
13346;DHT22;6742;48.036;15.780;2022-12-07T11:05:52;5.20;99.90
13346;DHT22;6742;48.036;15.780;2022-12-07T11:08:31;5.30;99.90
13346;DHT22;6742;48.036;15.780;2022-12-07T11:11:08;5.30;99.90
13346;DHT22;6742;48.036;15.780;2022-12-07T11:13:42;5.30;99.90
13346;DHT22;6742;48.036;15.780;2022-12-07T11:16:32;5.10;99.90
13346;DHT22;6742;48.036;15.780;2022-12-07T11:19:30;5.10;99.90
13346;DHT22;6742;48.036;15.780;2022-12-07T11:22:06;5.10;99.90
13346;DHT22;6742;48.036;15.780;2022-12-07T11:24:40;5.10;99.90
13346;DHT22;6742;48.036;15.780;2022-12-07T11:27:19;5.10;99.90
13346;DHT22;6742;48.036;15.780;2022-12-07T11:30:08;5.10;99.90
13346;DHT22;6742;48.036;15.780;2022-12-07T11:32:49;5.10;99.90
13346;DHT22;6742;48.036;15.780;2022-12-07T11:35:24;5.00;99.90
13346;DHT22;6742;48.036;15.780;2022-12-07T11:37:58;5.00;99.90
13346;DHT22;6742;48.036;15.780;2022-12-07T11:40:29;4.90;99.90
13346;DHT22;6742;48.036;15.780;2022-12-07T11:43:03;4.90;99.90
13346;DHT22;6742;48.036;15.780;2022-12-07T11:45:33;4.90;99.90
13346;DHT22;6742;48.036;15.780;2022-12-07T11:48:04;4.80;99.90
13346;DHT22;6742;48.036;15.780;2022-12-07T11:50:36;4.70;99.90
13346;DHT22;6742;48.036;15.780;2022-12-07T11:53:09;4.70;99.90
13346;DHT22;6742;48.036;15.780;2022-12-07T11:55:42;4.70;99.90
13346;DHT22;6742;48.036;15.780;2022-12-07T11:58:21;4.60;99.90
13346;DHT22;6742;48.036;15.780;2022-12-07T12:00:55;4.60;99.90
13346;DHT22;6742;48.036;15.780;2022-12-07T12:03:35;4.70;99.90
13346;DHT22;6742;48.036;15.780;2022-12-07T12:06:05;4.80;99.90
13346;DHT22;6742;48.036;15.780;2022-12-07T12:08:36;4.90;99.90
13346;DHT22;6742;48.036;15.780;2022-12-07T12:11:17;4.90;99.90
13346;DHT22;6742;48.036;15.780;2022-12-07T12:14:08;5.00;99.90
13346;DHT22;6742;48.036;15.780;2022-12-07T12:20:00;5.00;99.90
13346;DHT22;6742;48.036;15.780;2022-12-07T12:22:34;4.90;99.90
13346;DHT22;6742;48.036;15.780;2022-12-07T12:25:05;5.00;99.90
13346;DHT22;6742;48.036;15.780;2022-12-07T12:27:34;5.10;99.90
13346;DHT22;6742;48.036;15.780;2022-12-07T12:30:03;5.00;99.90
13346;DHT22;6742;48.036;15.780;2022-12-07T12:32:36;5.10;99.90
13346;DHT22;6742;48.036;15.780;2022-12-07T12:35:30;5.10;99.90
13346;DHT22;6742;48.036;15.780;2022-12-07T12:38:26;5.10;99.90
13346;DHT22;6742;48.036;15.780;2022-12-07T12:40:54;5.20;99.90
13346;DHT22;6742;48.036;15.780;2022-12-07T12:43:47;5.20;99.90
13346;DHT22;6742;48.036;15.780;2022-12-07T12:46:49;5.20;99.90
13346;DHT22;6742;48.036;15.780;2022-12-07T12:49:40;5.20;99.90
13346;DHT22;6742;48.036;15.780;2022-12-07T12:58:49;5.10;99.90
13346;DHT22;6742;48.036;15.780;2022-12-07T13:01:46;5.30;99.90
13346;DHT22;6742;48.036;15.780;2022-12-07T13:04:35;5.30;99.90
13346;DHT22;6742;48.036;15.780;2022-12-07T13:07:07;5.30;99.90
13346;DHT22;6742;48.036;15.780;2022-12-07T13:09:35;5.30;99.90
13346;DHT22;6742;48.036;15.780;2022-12-07T13:12:04;5.40;99.90
13346;DHT22;6742;48.036;15.780;2022-12-07T13:14:42;5.30;99.90
13346;DHT22;6742;48.036;15.780;2022-12-07T13:17:10;5.40;99.90
13346;DHT22;6742;48.036;15.780;2022-12-07T13:19:58;5.30;99.90
13346;DHT22;6742;48.036;15.780;2022-12-07T13:22:42;5.20;99.90
13346;DHT22;6742;48.036;15.780;2022-12-07T13:25:12;5.20;99.90
13346;DHT22;6742;48.036;15.780;2022-12-07T13:27:41;5.10;99.90
13346;DHT22;6742;48.036;15.780;2022-12-07T13:30:14;5.00;99.90
13346;DHT22;6742;48.036;15.780;2022-12-07T13:32:42;5.00;99.90
13346;DHT22;6742;48.036;15.780;2022-12-07T13:35:33;5.00;99.90
13346;DHT22;6742;48.036;15.780;2022-12-07T13:38:02;4.90;99.90
13346;DHT22;6742;48.036;15.780;2022-12-07T13:40:31;4.80;99.90
13346;DHT22;6742;48.036;15.780;2022-12-07T13:42:59;4.80;99.90
13346;DHT22;6742;48.036;15.780;2022-12-07T13:45:29;4.70;99.90
13346;DHT22;6742;48.036;15.780;2022-12-07T13:48:21;4.50;99.90
13346;DHT22;6742;48.036;15.780;2022-12-07T13:50:59;4.60;99.90
13346;DHT22;6742;48.036;15.780;2022-12-07T13:53:27;4.50;99.90
13346;DHT22;6742;48.036;15.780;2022-12-07T13:55:56;4.40;99.90
13346;DHT22;6742;48.036;15.780;2022-12-07T13:58:24;4.40;99.90
13346;DHT22;6742;48.036;15.780;2022-12-07T14:00:52;4.40;99.90
13346;DHT22;6742;48.036;15.780;2022-12-07T14:03:27;4.30;99.90
13346;DHT22;6742;48.036;15.780;2022-12-07T14:06:07;4.30;99.90
13346;DHT22;6742;48.036;15.780;2022-12-07T14:08:34;4.30;99.90
13346;DHT22;6742;48.036;15.780;2022-12-07T14:11:01;4.30;99.90
13346;DHT22;6742;48.036;15.780;2022-12-07T14:13:31;4.30;99.90
13346;DHT22;6742;48.036;15.780;2022-12-07T14:16:01;4.30;99.90
13346;DHT22;6742;48.036;15.780;2022-12-07T14:18:30;4.20;99.90
13346;DHT22;6742;48.036;15.780;2022-12-07T14:21:04;4.20;99.90
13346;DHT22;6742;48.036;15.780;2022-12-07T14:23:31;4.20;99.90
13346;DHT22;6742;48.036;15.780;2022-12-07T14:26:07;4.20;99.90
13346;DHT22;6742;48.036;15.780;2022-12-07T14:28:36;4.10;99.90
13346;DHT22;6742;48.036;15.780;2022-12-07T14:31:10;4.10;99.90
13346;DHT22;6742;48.036;15.780;2022-12-07T14:33:38;4.10;99.90
13346;DHT22;6742;48.036;15.780;2022-12-07T14:36:06;4.20;99.90
13346;DHT22;6742;48.036;15.780;2022-12-07T14:38:34;4.10;99.90
13346;DHT22;6742;48.036;15.780;2022-12-07T14:41:01;4.10;99.90
13346;DHT22;6742;48.036;15.780;2022-12-07T14:43:42;4.20;99.90
13346;DHT22;6742;48.036;15.780;2022-12-07T14:46:10;4.10;99.90
13346;DHT22;6742;48.036;15.780;2022-12-07T14:48:37;4.00;99.90
13346;DHT22;6742;48.036;15.780;2022-12-07T14:51:04;4.00;99.90
13346;DHT22;6742;48.036;15.780;2022-12-07T14:53:34;3.90;99.90
13346;DHT22;6742;48.036;15.780;2022-12-07T14:56:02;4.00;99.90
13346;DHT22;6742;48.036;15.780;2022-12-07T14:58:30;4.00;99.90
13346;DHT22;6742;48.036;15.780;2022-12-07T15:00:58;4.00;99.90
13346;DHT22;6742;48.036;15.780;2022-12-07T15:03:26;4.00;99.90
13346;DHT22;6742;48.036;15.780;2022-12-07T15:05:53;4.00;99.90
13346;DHT22;6742;48.036;15.780;2022-12-07T15:08:20;4.00;99.90
13346;DHT22;6742;48.036;15.780;2022-12-07T15:10:47;4.00;99.90
13346;DHT22;6742;48.036;15.780;2022-12-07T15:13:14;3.90;99.90
13346;DHT22;6742;48.036;15.780;2022-12-07T15:15:58;3.90;99.90
13346;DHT22;6742;48.036;15.780;2022-12-07T15:18:27;4.00;99.90
13346;DHT22;6742;48.036;15.780;2022-12-07T15:20:57;4.00;99.90
13346;DHT22;6742;48.036;15.780;2022-12-07T15:23:24;4.00;99.90
13346;DHT22;6742;48.036;15.780;2022-12-07T15:25:51;4.00;99.90
13346;DHT22;6742;48.036;15.780;2022-12-07T15:28:18;4.00;99.90
13346;DHT22;6742;48.036;15.780;2022-12-07T15:30:45;4.00;99.90
13346;DHT22;6742;48.036;15.780;2022-12-07T15:33:13;4.00;99.90
13346;DHT22;6742;48.036;15.780;2022-12-07T15:35:41;4.00;99.90
13346;DHT22;6742;48.036;15.780;2022-12-07T15:38:08;4.00;99.90
13346;DHT22;6742;48.036;15.780;2022-12-07T15:40:35;3.90;99.90
13346;DHT22;6742;48.036;15.780;2022-12-07T15:43:03;3.90;99.90
13346;DHT22;6742;48.036;15.780;2022-12-07T15:45:30;3.80;99.90
13346;DHT22;6742;48.036;15.780;2022-12-07T15:47:56;3.80;99.90
13346;DHT22;6742;48.036;15.780;2022-12-07T15:50:23;3.80;99.90
13346;DHT22;6742;48.036;15.780;2022-12-07T15:52:51;3.80;99.90
13346;DHT22;6742;48.036;15.780;2022-12-07T15:55:18;3.70;99.90
13346;DHT22;6742;48.036;15.780;2022-12-07T15:57:45;3.70;99.90
13346;DHT22;6742;48.036;15.780;2022-12-07T16:00:13;3.70;99.90
13346;DHT22;6742;48.036;15.780;2022-12-07T16:02:40;3.70;99.90
13346;DHT22;6742;48.036;15.780;2022-12-07T16:05:07;3.70;99.90
13346;DHT22;6742;48.036;15.780;2022-12-07T16:07:39;3.70;99.90
13346;DHT22;6742;48.036;15.780;2022-12-07T16:10:09;3.60;99.90
13346;DHT22;6742;48.036;15.780;2022-12-07T16:12:36;3.60;99.90
13346;DHT22;6742;48.036;15.780;2022-12-07T16:15:04;3.60;99.90
13346;DHT22;6742;48.036;15.780;2022-12-07T16:17:31;3.50;99.90
13346;DHT22;6742;48.036;15.780;2022-12-07T16:19:58;3.50;99.90